Pagrindinis puslapis
METAR-TAF:

METAR-TAF

Oro uostai :

Førde, Norvegija

platuma: 61-27N, ilguma: 005-52E, Aukštis: 150 m

Dabartinis oras

Ataskaita buvo paskelbta 26 minutes, ne 01:50 UTC
Vėjas 4 kt iš Rytų/Pietryčių, svyruoja nuo Rytų/Šiaurės Rytų ir Pietvakarių
Temperatūra 4°C
Drėgmė 52%
Slėgis 1003 hPa
Matomumas 10 km arba daugiau

METAR: ENBL 190150Z AUTO 12004KT 060V220 9999 OVC064/// 04/M05 Q1003

Laikas: 04:16 (02:16 UTC)

Prognozė

Ataskaita buvo paskelbta 12 valandos ir 16 minutes, ne 14:00 UTC
Prognozė galioja nuo 18 metu 15 UTC su 18 metu 22 UTC
Vėjas 8 kt iš Pietų
Matomumas 10 km arba daugiau
Mažai debesys ne aukštis 2000 ft
Su prošvaistėmis ne aukštis 5000 ft
lietus,

TAF: ENBL 181400Z 1815/1822 18008KT 9999 -RA FEW020 BKN050

Orai ataskaitas ir orų prognozės (METAR, TAF).

turimą stotys yra geltonos ir raudonos taškus žemėlapyje.

Perkelti pele per norėdami pamatyti stoties vardą.

Tada spustelėkite, norėdami matyti oro stebėjimo ir prognozės.

Norėdami pakeisti žemėlapį: spustelėkite ant žalios mygtukų su juodo kryžiaus žemyn,; žalią mygtuką su brūkšneliu, jei norite nutolinti; arba žalių rodyklių gretimoms žemėlapius.


METAR-TAF: